Waunakee, Wisconsin
Current Conditions -  °F | °C
As of 7:15 PM on Friday 28 Nov 2014 (Local Time) from KC29 Reporting Station
Overcast Overcast  
Wind Chill: -5°   Ceiling: 900
Heat Index: -2°   Visibility: 10mi
Dew Point: -4°   Wind: 5mph
Humidity: 84%   Direction: 130°SE
Pressure: 29.88"   Gusts: NA
Location:  43.19°N, 89.46°W
Report Text: KC29 290115Z AUTO 13004KT 10SM BKN009 OVC110 M02/M04 A2988 RMK AO1 T10201043
Loading
Personal Weather Stations






























Interactive Weather Map New forecast layout! Learn more

10-Day Weather Forecast

Advertisements
Track Severe Weather on mobile